createdAt,value
2019-01-19T23:01:59.866Z,136.00
2019-01-19T23:02:59.626Z,132.00
2019-01-19T23:03:59.627Z,128.00
2019-01-19T23:04:59.582Z,124.00
2019-01-19T23:05:59.573Z,112.00
2019-01-19T23:06:59.654Z,120.00
2019-01-19T23:07:59.666Z,120.00
2019-01-19T23:08:59.724Z,112.00
2019-01-19T23:09:59.620Z,108.00
2019-01-19T23:11:01.227Z,96.00
2019-01-19T23:11:59.428Z,80.00
2019-01-19T23:12:59.819Z,80.00
2019-01-19T23:13:59.377Z,72.00
2019-01-19T23:14:59.387Z,72.00
2019-01-19T23:15:59.350Z,64.00
2019-01-19T23:16:59.287Z,64.00
2019-01-19T23:17:59.379Z,60.00
2019-01-19T23:18:59.356Z,60.00
2019-01-19T23:19:59.246Z,56.00
2019-01-19T23:20:59.344Z,56.00
2019-01-19T23:21:59.180Z,48.00
2019-01-19T23:22:59.294Z,48.00
2019-01-19T23:23:59.481Z,44.00
2019-01-19T23:24:59.453Z,40.00
2019-01-19T23:25:59.197Z,40.00
2019-01-19T23:26:59.189Z,40.00
2019-01-19T23:27:59.068Z,32.00
2019-01-19T23:28:59.086Z,32.00
2019-01-19T23:29:59.462Z,32.00
2019-01-19T23:30:59.224Z,24.00
2019-01-19T23:31:59.222Z,24.00
2019-01-19T23:33:01.253Z,24.00
2019-01-19T23:33:59.017Z,20.00
2019-01-19T23:34:59.228Z,20.00
2019-01-19T23:35:59.045Z,16.00
2019-01-19T23:36:58.867Z,12.00
2019-01-19T23:37:58.936Z,16.00
2019-01-19T23:38:59.087Z,12.00
2019-01-19T23:39:59.468Z,12.00
2019-01-19T23:40:58.972Z,12.00
2019-01-19T23:41:59.477Z,8.00
2019-01-19T23:42:59.039Z,4.00
2019-01-19T23:43:59.327Z,8.00
2019-01-19T23:44:59.807Z,8.00
2019-01-19T23:45:58.799Z,4.00
2019-01-19T23:46:58.804Z,4.00
2019-01-19T23:47:58.909Z,0.00
2019-01-19T23:48:58.604Z,8.00
2019-01-19T23:49:58.844Z,8.00
2019-01-19T23:50:58.736Z,4.00
2019-01-19T23:51:58.750Z,8.00
2019-01-19T23:52:58.709Z,8.00
2019-01-19T23:53:58.540Z,4.00
2019-01-19T23:54:58.512Z,8.00
2019-01-19T23:55:58.536Z,8.00
2019-01-19T23:56:58.545Z,8.00
2019-01-19T23:57:58.536Z,4.00
2019-01-19T23:58:58.991Z,4.00
2019-01-19T23:59:58.682Z,4.00
